Portada
METAR-TAF:

METAR-TAF

Aeropuertos :

Skövde, Suecia

latitud: 58-27N, longitud: 013-58E, altitud: 98 m

Observación

El informe se hizo hace 43 minutos, a las 18:20 UTC
Viento 10 kt del sur
Temperatura 8°C
Humedad 87%
Presión 999 hPa
Visibilidad 10 km o más

METAR: ESGR 271820Z AUTO 18010KT 9999 FEW026/// SCT098/// BKN130/// 08/06 Q0999 RERA

Hora: 20:03 (19:03 UTC)


TAF: falta

Observaciones y pronósticos meteorológicos de más de 4000 aeropuertos (mensajes METAR y TAF).

Los puntos amarillos y rojos representan las estaciones disponibles.

Ponga el ratón en el punto deseado para ver el nombre de la estación.

Haga clic para ver las observaciones y los pronósticos meteorológicos.

Para cambiar el mapa : haga clic en los botones verdes con una cruz de color negro para hacer un zoom, en el botón verde con un guión para alejar o en las flechas verdes para mapas adyacentes.


METAR-TAF: